Portada
METAR-TAF:

METAR-TAF

Aeroports :

Jacareacanga, Pará, Brasil

latitud: 06-16S, longitud: 057-44W, altitud: 98 m

Observació

L'informe es va fer fa 1 hora i 36 minuts, a les 21:00 UTC
Vent 2 kt del Nord/Nord-Oest
Temperatura 27°C
Humitat 79%
Pressió 1006 hPa
Visibilitat 10 km o més
sense núvols per sota de 1500 mi sense presència de cumulonimbus.

METAR: SBEK 132100Z 33002KT CAVOK 27/23 Q1006 RETS

Hora: 19:36 (22:36 UTC)


TAF: manca

Observacions i pronòstics meteorològics de més de 4000 aeroports (METAR i TAF).

Les estacions disponibles són els punts grocs i vermells al mapa.

Posi el ratolí al punt desitjat per veure el nom de l'estació.

Feu clic per veure les observacions i els pronòstics meteorològics.

Per canviar el mapa: feu clic els botons verds amb una creu de color negre per apropar; al botó verd amb un guió per allunyar la imatge; o en les fletxes verdes per a mapes adjacents.


METAR-TAF: